Devils Tower Natl Monument, Wyoming
Current Conditions -  °F | °C
As of 9:53 PM on Saturday 20 Dec 2014 (Local Time) from KGCC Reporting Station
Clear Clear  
Wind Chill: 24°   Ceiling: Unl
Heat Index: 34°   Visibility: 10mi
Dew Point: 23°   Wind: 15mph
Humidity: 64%   Direction: 230°SW
Pressure: 29.75"   Gusts: NA
Location:  44.57°N, 104.82°W
Report Text: KGCC 210453Z AUTO 23013KT 10SM CLR 01/M05 A2975 RMK AO2 SLP090 T00111050 TSNO
Loading
Personal Weather Stations






























Interactive Weather Map New forecast layout! Learn more

10-Day Weather Forecast

Advertisements
Track Severe Weather on mobile